Terminal Aerodrome Forecast
Issued by NWS

Home | Current Version | Previous Version | Text Only | Print | Product List | Glossary On
Versions: 1 2 3 4 5 6 7 8 9 10 11 12 13 14 15 16 17 18 19 20 21 22 23 24 25 26 27 28 29 30 31 32 33 34 35 36 37 38 39 40
000
FTUS45 KBOU 180524
TAFBJC
TAF
KBJC 180524Z 1806/1906 25006KT P6SM SCT200
     FM181500 VRB05KT P6SM SCT200
     FM182100 16011KT P6SM FEW110 SCT200
     FM190200 22008KT P6SM SKC=

USA.gov is the U.S. government's official web portal to all federal, state and local government web resources and services.